Y50 weather

Wautoma Municipal Airport
Wautoma, Wisconsin, United States

Public forecast

Using degrees Fahrenheit for public forecast. Weather courtesy of forecast.io.

Current aviation weather report (METAR) for Wautoma Municipal Airport

Retrieved 2019/10/18 21:56 UTC (13 minutes ago):

KY50 182156Z AUTO 15013KT 10SM CLR 14/04 A2985 RMK AO2 SLP113 T01390044

Closest aviation forecast (TAF) to Wautoma Municipal Airport

Forecast is more than 12 hours old.

Closest forecast is Wittman Regional Airport, 32.5 nm (60.1 km) E. Retrieved 2019/07/30 12:39 UTC (3 months ago):

TAF KOSH 301136Z 3012/3112 36006KT P6SM BKN050 TEMPO 3015/3017 BKN025 FM301700 01006KT P6SM BKN035 FM302200 04005KT P6SM SCT045 FM310200 11003KT P6SM SKC FM310900 VRB03KT 6SM BR SKC